Time;durP1;ratioP1;P1;durP2;ratioP2;P2;SDS_P1;SDS_P2;PMS_P1;PMS_P2;Temp;Humidity;BMP_temperature;BMP_pressure;BME280_temperature;BME280_humidity;BME280_pressure;Samples;Min_cycle;Max_cycle;Signal;HPM_P1;HPM_P2
2023/12/02 00:01:46;;;;;;;4.00;0.90;;;;;;;7.66;84.29;98884.56;5069258;28;20021;-78
2023/12/02 00:04:11;;;;;;;5.00;1.20;;;;;;;7.68;83.82;98885.41;5069438;28;20036;-78
2023/12/02 00:06:37;;;;;;;4.20;1.10;;;;;;;7.69;84.14;98886.25;5069163;28;20480;-78
2023/12/02 00:09:02;;;;;;;5.77;1.10;;;;;;;7.66;83.94;98887.19;5069131;28;20068;-78
2023/12/02 00:11:28;;;;;;;5.87;1.10;;;;;;;7.65;83.92;98888.09;5069046;28;20074;-78
2023/12/02 00:13:53;;;;;;;4.85;1.40;;;;;;;7.67;84.24;98890.66;5069143;28;20050;-78
2023/12/02 00:16:19;;;;;;;5.03;1.13;;;;;;;7.66;84.08;98886.31;5069116;28;20610;-77
2023/12/02 00:18:44;;;;;;;7.50;1.40;;;;;;;7.64;83.87;98883.72;5069088;28;20032;-77
2023/12/02 00:21:09;;;;;;;4.83;1.13;;;;;;;7.64;84.52;98886.34;5069283;28;20397;-78
2023/12/02 00:23:35;;;;;;;6.07;1.60;;;;;;;7.64;84.00;98883.72;5068600;28;20079;-79
2023/12/02 00:26:00;;;;;;;8.43;2.08;;;;;;;7.65;84.03;98884.59;5068976;28;20032;-78
2023/12/02 00:28:25;;;;;;;5.80;1.63;;;;;;;7.65;84.36;98884.59;5070972;28;20116;-79
2023/12/02 00:30:51;;;;;;;5.30;1.50;;;;;;;7.63;84.24;98887.25;5072601;28;20508;-78
2023/12/02 00:33:16;;;;;;;6.57;1.50;;;;;;;7.60;84.29;98896.00;5071093;28;20052;-78
2023/12/02 00:35:41;;;;;;;11.00;1.80;;;;;;;7.59;84.22;98894.28;5072522;28;20029;-79
2023/12/02 00:38:07;;;;;;;5.63;1.40;;;;;;;7.57;84.27;98897.78;5072501;28;20399;-79
2023/12/02 00:40:32;;;;;;;8.30;2.10;;;;;;;7.56;84.55;98906.53;5072280;28;20275;-78
2023/12/02 00:42:58;;;;;;;5.07;1.40;;;;;;;7.54;84.64;98913.53;5072460;28;20560;-79
2023/12/02 00:45:23;;;;;;;6.13;2.17;;;;;;;7.55;84.27;98916.16;5072245;28;20039;-78
2023/12/02 00:47:48;;;;;;;7.27;1.67;;;;;;;7.56;84.45;98914.38;5071988;28;20089;-80
2023/12/02 00:50:14;;;;;;;7.57;1.97;;;;;;;7.54;84.87;98913.53;5072212;28;20052;-79
2023/12/02 00:52:39;;;;;;;7.87;1.70;;;;;;;7.53;84.32;98919.69;5072248;28;20275;-78
2023/12/02 00:55:05;;;;;;;8.57;1.40;;;;;;;7.53;84.90;98924.91;5072204;28;20021;-78
2023/12/02 00:57:30;;;;;;;6.40;1.58;;;;;;;7.50;84.78;98928.47;5072165;28;20028;-78
2023/12/02 00:59:56;;;;;;;4.43;1.40;;;;;;;7.51;84.45;98932.81;5070493;28;20039;-77
2023/12/02 01:02:21;;;;;;;6.67;1.13;;;;;;;7.49;85.15;98931.97;5071965;28;20452;-77
2023/12/02 01:04:47;;;;;;;7.13;1.50;;;;;;;7.47;85.05;98937.22;5072060;28;20028;-78
2023/12/02 01:07:12;;;;;;;5.28;1.23;;;;;;;7.47;84.85;98945.06;5071928;28;20024;-78
2023/12/02 01:09:37;;;;;;;6.80;1.20;;;;;;;7.47;84.62;98949.44;5071770;28;20040;-79
2023/12/02 01:12:03;;;;;;;5.73;1.47;;;;;;;7.47;85.19;98945.06;5071905;28;20062;-77
2023/12/02 01:14:28;;;;;;;6.13;1.40;;;;;;;7.47;85.01;98955.53;5071774;28;20029;-77
2023/12/02 01:16:54;;;;;;;5.75;1.30;;;;;;;7.47;84.82;98955.53;5071869;28;20032;-78
2023/12/02 01:19:20;;;;;;;4.60;1.37;;;;;;;7.47;84.63;98960.78;5071644;28;20499;-78
2023/12/02 01:21:46;;;;;;;5.70;1.20;;;;;;;7.47;84.77;98966.03;5071760;28;20033;-78
2023/12/02 01:24:11;;;;;;;6.30;1.00;;;;;;;7.45;85.19;98973.03;5071247;28;20514;-77
2023/12/02 01:26:37;;;;;;;4.90;1.20;;;;;;;7.45;84.74;98974.78;5071335;28;20028;-79
2023/12/02 01:29:02;;;;;;;7.70;1.17;;;;;;;7.43;85.43;98977.44;5071217;28;20055;-79
2023/12/02 01:31:28;;;;;;;5.40;1.00;;;;;;;7.43;85.36;98979.16;5071367;28;20028;-81
2023/12/02 01:33:53;;;;;;;3.77;0.73;;;;;;;7.41;85.50;98994.91;5071454;28;20584;-79
2023/12/02 01:36:19;;;;;;;3.43;0.80;;;;;;;7.42;85.46;98991.41;5071242;28;20025;-79
2023/12/02 01:38:44;;;;;;;3.80;0.80;;;;;;;7.39;85.30;98994.06;5071027;28;20097;-79
2023/12/02 01:41:09;;;;;;;4.95;1.10;;;;;;;7.40;85.26;99003.66;5071554;28;20029;-79
2023/12/02 01:43:37;;;;;;;3.87;0.90;;;;;;;7.36;84.81;98999.34;5071027;28;20028;-78
2023/12/02 01:46:03;;;;;;;4.03;0.70;;;;;;;7.37;84.69;99010.69;5071180;28;20025;-78
2023/12/02 01:48:33;;;;;;;6.13;1.10;;;;;;;7.35;84.79;99018.53;5071059;28;20040;-79
2023/12/02 01:50:59;;;;;;;5.88;1.20;;;;;;;7.33;84.89;99022.94;5070914;28;20025;-78
2023/12/02 01:53:24;;;;;;;5.68;1.23;;;;;;;7.32;85.31;99029.03;5070975;28;20527;-79
2023/12/02 01:55:50;;;;;;;4.90;0.90;;;;;;;7.33;85.21;99036.91;5071114;28;20020;-78
2023/12/02 01:58:16;;;;;;;6.57;1.10;;;;;;;7.33;84.83;99043.88;5070792;28;20038;-79
2023/12/02 02:00:41;;;;;;;5.30;0.80;;;;;;;7.34;85.36;99040.38;5070851;28;20519;-78
2023/12/02 02:03:07;;;;;;;6.47;1.13;;;;;;;7.36;84.96;99051.72;5070725;28;20025;-79
2023/12/02 02:05:33;;;;;;;3.90;1.10;;;;;;;7.35;85.22;99049.97;5070739;28;20278;-79
2023/12/02 02:07:58;;;;;;;5.50;0.90;;;;;;;7.37;85.14;99058.69;5070613;28;20021;-79
2023/12/02 02:10:24;;;;;;;7.30;1.30;;;;;;;7.38;84.83;99063.06;5070625;28;20686;-79
2023/12/02 02:12:49;;;;;;;5.63;1.37;;;;;;;7.39;85.48;99072.63;5070602;28;20630;-79
2023/12/02 02:15:14;;;;;;;6.40;1.00;;;;;;;7.40;85.07;99071.75;5070647;28;20024;-79
2023/12/02 02:17:40;;;;;;;6.07;1.70;;;;;;;7.40;85.34;99071.75;5070590;28;20155;-79
2023/12/02 02:20:08;;;;;;;6.40;1.58;;;;;;;7.42;84.89;99077.84;5070616;28;20086;-78
2023/12/02 02:22:34;;;;;;;5.55;1.60;;;;;;;7.42;85.43;99083.09;5070405;28;20032;-79
2023/12/02 02:24:59;;;;;;;6.40;1.60;;;;;;;7.45;85.18;99082.16;5070008;28;20265;-79
2023/12/02 02:27:24;;;;;;;4.73;1.47;;;;;;;7.46;85.19;99084.78;5070250;28;20492;-79
2023/12/02 02:29:50;;;;;;;4.53;1.30;;;;;;;7.46;85.01;99095.25;5070029;28;20111;-79
2023/12/02 02:32:15;;;;;;;5.50;1.57;;;;;;;7.48;85.32;99103.13;5069995;28;20107;-79
2023/12/02 02:34:44;;;;;;;5.70;1.67;;;;;;;7.50;85.21;99106.59;5070170;28;20031;-78
2023/12/02 02:37:09;;;;;;;5.82;1.63;;;;;;;7.50;85.32;99108.31;5070162;28;20055;-78
2023/12/02 02:39:35;;;;;;;5.47;1.37;;;;;;;7.52;85.51;99115.28;5070045;28;20036;-79
2023/12/02 02:42:06;;;;;;;4.75;1.50;;;;;;;7.54;85.85;99115.25;5070172;28;20515;-79
2023/12/02 02:44:36;;;;;;;5.75;1.40;;;;;;;7.55;85.51;99114.38;5068830;28;20517;-79
2023/12/02 02:47:01;;;;;;;5.27;1.40;;;;;;;7.56;85.43;99122.22;5070131;28;20035;-78
2023/12/02 02:49:27;;;;;;;4.88;1.23;;;;;;;7.58;85.60;99123.09;5070195;28;20029;-79
2023/12/02 02:51:53;;;;;;;6.03;1.33;;;;;;;7.59;85.54;99124.81;5069324;28;20656;-77
2023/12/02 02:54:18;;;;;;;6.03;1.30;;;;;;;7.60;85.83;99129.16;5069969;28;20370;-80
2023/12/02 02:56:43;;;;;;;8.17;1.67;;;;;;;7.60;85.61;99123.94;5069987;28;20041;-79
2023/12/02 02:59:09;;;;;;;4.50;1.60;;;;;;;7.61;85.70;99125.66;5069875;28;20035;-79
2023/12/02 03:01:34;;;;;;;6.10;1.85;;;;;;;7.61;86.10;99130.06;5069908;28;20031;-78
2023/12/02 03:04:00;;;;;;;4.87;1.50;;;;;;;7.59;86.01;99131.78;5069994;28;20033;-77
2023/12/02 03:06:26;;;;;;;4.87;1.30;;;;;;;7.56;85.89;99142.31;5069972;28;20107;-79
2023/12/02 03:08:51;;;;;;;5.82;1.50;;;;;;;7.56;86.03;99139.69;5069579;28;20507;-79
2023/12/02 03:11:16;;;;;;;4.70;1.57;;;;;;;7.55;86.11;99145.81;5069586;28;20090;-78
2023/12/02 03:13:42;;;;;;;4.00;1.40;;;;;;;7.55;86.27;99154.56;5069570;28;20032;-79
2023/12/02 03:16:08;;;;;;;5.53;1.40;;;;;;;7.56;86.40;99155.41;5069702;28;20029;-79
2023/12/02 03:18:33;;;;;;;4.93;1.40;;;;;;;7.57;86.14;99155.41;5068271;28;20101;-78
2023/12/02 03:20:59;;;;;;;4.40;1.30;;;;;;;7.59;86.01;99158.00;5069762;28;20029;-78
2023/12/02 03:23:25;;;;;;;4.57;1.20;;;;;;;7.58;86.14;99170.25;5069331;28;20370;-79
2023/12/02 03:25:50;;;;;;;5.60;1.50;;;;;;;7.59;86.71;99168.47;5069381;28;20111;-78
2023/12/02 03:28:18;;;;;;;3.97;1.30;;;;;;;7.58;86.14;99179.84;5069037;28;20691;-79
2023/12/02 03:30:43;;;;;;;5.88;1.50;;;;;;;7.58;86.45;99179.84;5069431;28;20093;-78
2023/12/02 03:33:08;;;;;;;5.97;1.40;;;;;;;7.56;86.63;99185.09;5069266;28;20052;-78
2023/12/02 03:35:34;;;;;;;4.03;1.23;;;;;;;7.57;86.37;99191.19;5069477;28;20396;-79
2023/12/02 03:37:59;;;;;;;4.43;1.77;;;;;;;7.55;86.22;99198.22;5069495;28;20028;-78
2023/12/02 03:40:24;;;;;;;8.00;1.80;;;;;;;7.54;86.08;99199.97;5069349;28;20058;-78
2023/12/02 03:42:50;;;;;;;6.45;2.35;;;;;;;7.54;86.44;99206.94;5069395;28;20036;-79
2023/12/02 03:45:15;;;;;;;8.20;3.10;;;;;;;7.52;86.39;99213.94;5069386;28;20503;-79
2023/12/02 03:47:41;;;;;;;11.40;4.13;;;;;;;7.51;86.10;99226.19;5069237;28;20027;-79
2023/12/02 03:50:06;;;;;;;13.97;5.70;;;;;;;7.49;85.98;99219.22;5069103;28;20075;-79
2023/12/02 03:52:32;;;;;;;11.90;5.05;;;;;;;7.44;85.87;99241.09;5069248;28;20024;-79
2023/12/02 03:54:57;;;;;;;15.50;6.10;;;;;;;7.38;85.77;99238.53;5069217;28;20465;-79
2023/12/02 03:57:22;;;;;;;10.03;4.53;;;;;;;7.33;85.39;99245.53;5069347;28;20040;-79
2023/12/02 03:59:48;;;;;;;13.07;4.67;;;;;;;7.31;85.42;99260.38;5069132;28;20484;-79
2023/12/02 04:02:13;;;;;;;11.70;4.27;;;;;;;7.28;85.34;99263.03;5069642;28;20032;-78
2023/12/02 04:04:38;;;;;;;10.20;4.35;;;;;;;7.23;85.06;99280.53;5073161;28;20020;-79
2023/12/02 04:07:04;;;;;;;10.53;4.13;;;;;;;7.20;85.21;99281.41;5072950;28;20037;-79
2023/12/02 04:09:30;;;;;;;12.10;4.87;;;;;;;7.12;84.73;99284.09;5072838;28;20093;-79
2023/12/02 04:11:55;;;;;;;13.70;4.88;;;;;;;7.10;84.37;99279.72;5072916;28;20036;-78
2023/12/02 04:14:21;;;;;;;9.80;4.27;;;;;;;7.06;84.60;99293.72;5072823;28;20043;-78
2023/12/02 04:16:46;;;;;;;10.97;5.20;;;;;;;7.02;84.37;99295.47;5072943;28;20027;-79
2023/12/02 04:19:12;;;;;;;12.63;5.13;;;;;;;6.95;84.09;99296.41;5072863;28;20033;-79
2023/12/02 04:21:42;;;;;;;14.07;4.22;;;;;;;6.90;84.18;99291.16;5072999;28;20443;-79
2023/12/02 04:24:09;;;;;;;9.35;4.50;;;;;;;6.91;83.95;99299.91;5071981;28;20052;-79
2023/12/02 04:26:36;;;;;;;9.13;4.20;;;;;;;6.87;84.17;99299.94;5072555;28;20044;-78
2023/12/02 04:29:01;;;;;;;10.53;4.73;;;;;;;6.85;83.86;99300.78;5072443;28;20052;-79
2023/12/02 04:31:27;;;;;;;11.23;4.20;;;;;;;6.83;83.80;99307.78;5072278;28;20141;-78
2023/12/02 04:33:52;;;;;;;12.17;4.90;;;;;;;6.81;84.25;99310.41;5072384;28;20125;-78
2023/12/02 04:36:18;;;;;;;10.33;4.50;;;;;;;6.81;84.64;99317.41;5072458;28;20070;-79
2023/12/02 04:38:43;;;;;;;14.73;5.00;;;;;;;6.82;84.56;99319.13;5072297;28;20098;-77
2023/12/02 04:41:08;;;;;;;10.67;4.73;;;;;;;6.82;84.53;99325.22;5072514;28;20028;-76
2023/12/02 04:43:34;;;;;;;8.73;4.27;;;;;;;6.79;84.21;99332.22;5072265;28;20029;-77
2023/12/02 04:46:00;;;;;;;11.45;4.50;;;;;;;6.75;83.57;99331.38;5072421;28;20095;-77
2023/12/02 04:48:26;;;;;;;9.17;3.97;;;;;;;6.73;83.97;99343.59;5072142;28;20112;-79
2023/12/02 04:50:51;;;;;;;10.10;4.10;;;;;;;6.71;83.48;99345.34;5071977;28;20104;-78
2023/12/02 04:53:16;;;;;;;11.20;4.53;;;;;;;6.66;83.62;99352.34;5072138;28;20032;-78
2023/12/02 04:55:42;;;;;;;9.70;4.10;;;;;;;6.63;83.26;99347.09;5072265;28;20024;-79
2023/12/02 04:58:07;;;;;;;9.33;3.97;;;;;;;6.62;83.45;99356.69;5072179;28;20460;-79
2023/12/02 05:00:33;;;;;;;9.97;4.03;;;;;;;6.58;83.12;99366.28;5072001;28;20033;-78
2023/12/02 05:02:58;;;;;;;12.13;4.50;;;;;;;6.54;83.47;99364.56;5072073;28;20263;-78
2023/12/02 05:05:23;;;;;;;9.97;4.50;;;;;;;6.49;83.20;99371.53;5072003;28;20617;-79
2023/12/02 05:07:49;;;;;;;11.07;4.27;;;;;;;6.47;82.87;99368.06;5071862;28;20055;-78
2023/12/02 05:10:14;;;;;;;9.77;4.07;;;;;;;6.44;83.40;99376.78;5071821;28;20020;-79
2023/12/02 05:12:40;;;;;;;11.13;3.70;;;;;;;6.42;82.67;99381.13;5070210;28;20412;-79
2023/12/02 05:15:05;;;;;;;9.93;4.40;;;;;;;6.40;83.37;99387.25;5071276;28;20271;-78
2023/12/02 05:17:31;;;;;;;11.63;3.90;;;;;;;6.38;82.45;99388.97;5071753;28;20025;-79
2023/12/02 05:19:56;;;;;;;10.48;3.97;;;;;;;6.35;82.99;99400.34;5071672;28;20075;-78
2023/12/02 05:22:22;;;;;;;11.63;4.03;;;;;;;6.35;83.34;99404.69;5071549;28;20032;-79
2023/12/02 05:24:47;;;;;;;12.57;3.83;;;;;;;6.31;82.61;99409.91;5060721;28;20056;-78
2023/12/02 05:27:13;;;;;;;11.27;3.83;;;;;;;6.27;82.51;99405.56;5071605;28;20028;-79
2023/12/02 05:29:38;;;;;;;11.80;3.63;;;;;;;6.28;82.80;99409.06;5071105;28;20035;-78
2023/12/02 05:32:05;;;;;;;12.98;4.60;;;;;;;6.28;83.37;99409.91;5071266;28;20031;-79
2023/12/02 05:34:32;;;;;;;10.43;4.00;;;;;;;6.29;82.67;99416.03;5071464;28;20052;-78
2023/12/02 05:36:57;;;;;;;10.32;4.38;;;;;;;6.28;83.04;99420.38;5071291;28;20024;-79
2023/12/02 05:39:23;;;;;;;10.47;3.97;;;;;;;6.28;82.91;99429.97;5071190;28;20154;-80
2023/12/02 05:41:48;;;;;;;10.97;4.40;;;;;;;6.26;82.67;99440.44;5071314;28;20142;-78
2023/12/02 05:44:13;;;;;;;11.90;4.53;;;;;;;6.25;82.55;99443.03;5071187;28;20028;-78
2023/12/02 05:46:39;;;;;;;11.57;4.87;;;;;;;6.23;82.49;99447.38;5071145;28;20054;-78
2023/12/02 05:49:05;;;;;;;12.67;5.10;;;;;;;6.22;82.91;99443.91;5070976;28;20111;-78
2023/12/02 05:51:30;;;;;;;12.65;4.70;;;;;;;6.23;82.97;99452.63;5070731;28;20037;-79
2023/12/02 05:53:55;;;;;;;13.17;5.20;;;;;;;6.22;82.63;99458.72;5070990;28;20170;-77
2023/12/02 05:56:21;;;;;;;13.87;5.57;;;;;;;6.18;82.83;99468.31;5071039;28;20020;-78
2023/12/02 05:58:48;;;;;;;12.17;4.67;;;;;;;6.14;82.34;99462.22;5070777;28;20028;-77
2023/12/02 06:01:19;;;;;;;11.13;4.55;;;;;;;6.13;81.92;99473.53;5070928;28;20021;-79
2023/12/02 06:03:44;;;;;;;18.90;5.22;;;;;;;6.08;82.09;99469.16;5070996;28;20024;-78
2023/12/02 06:06:11;;;;;;;14.43;5.17;;;;;;;6.07;82.26;99478.75;5070807;28;20028;-79
2023/12/02 06:08:36;;;;;;;12.23;4.63;;;;;;;6.08;81.85;99480.50;5070629;28;20024;-80
2023/12/02 06:11:02;;;;;;;14.70;4.83;;;;;;;6.09;82.83;99491.81;5070653;28;20090;-79
2023/12/02 06:13:27;;;;;;;10.83;4.70;;;;;;;6.09;82.21;99497.94;5070302;28;20029;-79
2023/12/02 06:15:52;;;;;;;11.57;4.93;;;;;;;6.09;81.78;99502.28;5070668;28;20506;-79
2023/12/02 06:18:18;;;;;;;11.20;4.70;;;;;;;6.09;82.47;99508.38;5070385;28;20294;-79
2023/12/02 06:20:43;;;;;;;10.47;4.33;;;;;;;6.08;82.04;99510.97;5070491;28;20035;-79
2023/12/02 06:23:09;;;;;;;10.47;4.40;;;;;;;6.06;82.01;99508.38;5070640;28;20358;-80
2023/12/02 06:25:34;;;;;;;10.40;4.28;;;;;;;6.06;82.00;99515.34;5067075;28;20515;-79
2023/12/02 06:28:00;;;;;;;12.70;4.60;;;;;;;6.03;81.91;99524.91;5070360;28;20052;-79
2023/12/02 06:30:25;;;;;;;9.47;3.80;;;;;;;6.03;81.41;99530.16;5070196;28;20056;-78
2023/12/02 06:32:52;;;;;;;11.77;4.22;;;;;;;5.99;81.29;99530.97;5069933;28;20052;-79
2023/12/02 06:35:17;;;;;;;9.77;3.60;;;;;;;5.99;81.06;99544.03;5070129;28;20028;-79
2023/12/02 06:37:43;;;;;;;9.40;4.40;;;;;;;5.99;81.48;99551.88;5070225;28;20634;-79
2023/12/02 06:40:09;;;;;;;10.63;4.30;;;;;;;6.00;81.17;99550.13;5068762;28;20393;-79
2023/12/02 06:42:35;;;;;;;8.95;3.72;;;;;;;6.00;81.45;99551.00;5070272;28;20028;-78
2023/12/02 06:45:00;;;;;;;9.50;3.77;;;;;;;6.01;81.34;99563.25;5070086;28;20028;-79
2023/12/02 06:47:26;;;;;;;9.30;4.03;;;;;;;5.99;80.88;99575.41;5069915;28;20032;-79
2023/12/02 06:49:51;;;;;;;9.10;3.87;;;;;;;5.99;80.79;99569.28;5069966;28;20492;-79
2023/12/02 06:52:16;;;;;;;10.90;3.77;;;;;;;6.01;80.80;99580.66;5069886;28;20098;-78
2023/12/02 06:54:42;;;;;;;9.10;3.13;;;;;;;6.05;80.56;99581.56;5068661;28;20028;-79
2023/12/02 06:57:07;;;;;;;10.80;3.73;;;;;;;6.05;80.86;99584.16;5069969;28;20024;-78
2023/12/02 06:59:33;;;;;;;12.95;4.30;;;;;;;6.02;80.95;99592.84;5069749;28;20043;-79
2023/12/02 07:01:59;;;;;;;11.73;5.60;;;;;;;5.97;79.40;99590.22;5069987;28;20050;-79
2023/12/02 07:04:24;;;;;;;13.00;5.07;;;;;;;5.93;80.30;99596.31;5069838;28;20431;-79
2023/12/02 07:06:50;;;;;;;11.43;4.60;;;;;;;5.82;80.00;99596.25;5069949;28;20082;-79
2023/12/02 07:09:16;;;;;;;14.50;4.90;;;;;;;5.81;79.93;99598.84;5069762;28;20558;-78
2023/12/02 07:11:41;;;;;;;13.48;5.28;;;;;;;5.75;79.85;99613.63;5069534;28;20100;-78
2023/12/02 07:14:07;;;;;;;12.98;5.65;;;;;;;5.70;78.96;99620.59;5069391;28;20032;-79
2023/12/02 07:16:32;;;;;;;11.17;4.80;;;;;;;5.63;79.69;99624.00;5069761;28;20025;-79
2023/12/02 07:18:57;;;;;;;10.67;5.10;;;;;;;5.58;79.82;99637.06;5069709;28;20053;-79
2023/12/02 07:21:23;;;;;;;11.50;4.83;;;;;;;5.55;80.14;99631.81;5069598;28;20041;-78
2023/12/02 07:23:49;;;;;;;11.48;5.30;;;;;;;5.52;80.02;99637.00;5066731;28;20049;-80
2023/12/02 07:26:15;;;;;;;11.40;5.40;;;;;;;5.51;79.55;99639.63;5061815;28;20036;-79
2023/12/02 07:28:41;;;;;;;11.30;5.13;;;;;;;5.49;79.43;99636.13;5069359;28;20043;-78
2023/12/02 07:31:15;;;;;;;12.67;5.27;;;;;;;5.50;79.19;99648.31;5069522;28;20082;-79
2023/12/02 07:33:41;;;;;;;11.30;5.22;;;;;;;5.48;79.33;99644.81;5069182;28;20101;-79
2023/12/02 07:36:07;;;;;;;12.85;5.80;;;;;;;5.44;78.94;99652.63;5069767;28;20694;-79
2023/12/02 07:38:33;;;;;;;13.98;5.20;;;;;;;5.43;79.67;99660.44;5073420;28;20024;-79
2023/12/02 07:40:58;;;;;;;12.23;5.70;;;;;;;5.41;79.13;99660.41;5073613;28;20033;-80
2023/12/02 07:43:23;;;;;;;13.03;5.73;;;;;;;5.39;79.19;99669.97;5073300;28;20028;-79
2023/12/02 07:45:49;;;;;;;12.02;5.43;;;;;;;5.37;78.93;99671.72;5073567;28;20060;-78
2023/12/02 07:48:14;;;;;;;12.40;5.40;;;;;;;5.35;78.18;99680.41;5073275;28;20033;-79
2023/12/02 07:50:40;;;;;;;13.13;5.80;;;;;;;5.35;78.50;99683.88;5073171;28;20039;-80
2023/12/02 07:53:05;;;;;;;12.33;5.60;;;;;;;5.37;78.53;99696.97;5073223;28;20572;-80
2023/12/02 07:55:30;;;;;;;17.13;6.35;;;;;;;5.35;77.89;99707.38;5073103;28;20036;-78
2023/12/02 07:57:56;;;;;;;13.40;5.87;;;;;;;5.35;78.05;99714.34;5073165;28;20489;-80
2023/12/02 08:00:21;;;;;;;13.57;5.70;;;;;;;5.33;78.32;99724.78;5073161;28;20063;-79
2023/12/02 08:02:47;;;;;;;12.73;6.47;;;;;;;5.35;77.71;99728.28;5073030;28;20032;-79
2023/12/02 08:05:12;;;;;;;12.53;6.07;;;;;;;5.39;78.14;99735.25;5073106;28;20036;-80
2023/12/02 08:07:37;;;;;;;12.47;5.20;;;;;;;5.45;78.20;99739.66;5073319;28;20313;-78
2023/12/02 08:10:03;;;;;;;11.80;5.90;;;;;;;5.50;76.82;99742.31;5072557;28;20032;-78
2023/12/02 08:12:29;;;;;;;11.67;5.30;;;;;;;5.54;76.71;99744.09;5072799;28;20116;-80
2023/12/02 08:14:54;;;;;;;11.27;5.80;;;;;;;5.49;76.26;99746.66;5072580;28;20028;-80
2023/12/02 08:17:19;;;;;;;13.02;6.18;;;;;;;5.50;75.99;99758.00;5072700;28;20028;-79
2023/12/02 08:19:45;;;;;;;12.00;5.60;;;;;;;5.49;76.37;99757.09;5072836;28;20565;-78
2023/12/02 08:22:11;;;;;;;12.25;6.00;;;;;;;5.47;75.90;99756.22;5072714;28;20028;-79
2023/12/02 08:24:42;;;;;;;12.13;5.90;;;;;;;5.46;75.77;99764.91;5063214;28;20053;-79
2023/12/02 08:27:08;;;;;;;16.05;6.78;;;;;;;5.38;76.06;99764.00;5071907;28;20052;-79
2023/12/02 08:29:34;;;;;;;16.15;6.63;;;;;;;5.31;75.85;99774.38;5072433;28;20072;-79
2023/12/02 08:31:59;;;;;;;14.00;6.07;;;;;;;5.38;75.95;99780.50;5070994;28;20610;-79
2023/12/02 08:34:25;;;;;;;12.43;5.82;;;;;;;5.56;75.86;99787.66;5072413;28;20416;-79
2023/12/02 08:36:50;;;;;;;14.43;5.90;;;;;;;5.83;76.13;99790.47;5072433;28;20060;-80
2023/12/02 08:39:17;;;;;;;11.47;6.07;;;;;;;6.09;75.29;99792.41;5072237;28;20071;-78
2023/12/02 08:41:42;;;;;;;12.52;5.88;;;;;;;6.25;74.61;99786.44;5072473;28;20507;-80
2023/12/02 08:44:08;;;;;;;11.70;5.93;;;;;;;6.37;74.10;99777.78;5072300;28;20021;-78
2023/12/02 08:46:34;;;;;;;11.48;5.07;;;;;;;6.45;73.64;99783.06;5072510;28;20474;-78
2023/12/02 08:48:59;;;;;;;13.03;5.70;;;;;;;6.51;73.10;99793.53;5071265;28;20178;-79
2023/12/02 08:51:24;;;;;;;13.87;6.70;;;;;;;6.45;72.23;99793.53;5071998;28;20036;-79
2023/12/02 08:53:58;;;;;;;13.10;6.10;;;;;;;6.38;71.81;99797.84;5071950;28;20511;-79
2023/12/02 08:56:23;;;;;;;11.82;5.88;;;;;;;6.36;73.17;99803.91;5072091;28;20107;-79
2023/12/02 08:58:49;;;;;;;12.90;5.20;;;;;;;6.37;73.69;99811.78;5071905;28;20135;-79
2023/12/02 09:01:14;;;;;;;14.75;5.85;;;;;;;6.37;72.68;99813.50;5067339;28;20027;-78
2023/12/02 09:03:40;;;;;;;14.87;5.73;;;;;;;6.29;72.82;99821.31;5072152;28;20066;-79
2023/12/02 09:06:05;;;;;;;13.00;5.63;;;;;;;6.20;72.11;99819.53;5067838;28;20093;-77
2023/12/02 09:08:31;;;;;;;13.65;5.95;;;;;;;6.13;72.59;99828.16;5071024;28;20563;-79
2023/12/02 09:10:56;;;;;;;12.83;5.97;;;;;;;6.19;72.84;99830.84;5066719;28;20052;-77
2023/12/02 09:13:40;;;;;;;12.37;5.33;;;;;;;6.24;72.22;99844.81;5071079;28;20024;-78
2023/12/02 09:16:27;;;;;;;12.13;6.03;;;;;;;6.21;71.66;99847.41;5070745;28;20024;-78
2023/12/02 09:18:53;;;;;;;14.00;6.47;;;;;;;6.19;73.02;99854.38;5071067;28;20141;-77
2023/12/02 09:21:21;;;;;;;13.77;7.33;;;;;;;6.16;72.58;99856.97;5071652;28;20231;-78
2023/12/02 09:23:52;;;;;;;14.60;6.18;;;;;;;6.14;72.52;99864.78;5070217;28;20045;-78
2023/12/02 09:26:31;;;;;;;14.13;6.43;;;;;;;6.21;72.48;99877.91;5065559;28;20459;-77
2023/12/02 09:28:57;;;;;;;13.37;6.87;;;;;;;6.20;72.59;99886.63;5070723;28;20081;-80
2023/12/02 09:31:24;;;;;;;14.63;6.15;;;;;;;6.15;72.77;99887.47;5066404;28;20044;-79
2023/12/02 09:33:59;;;;;;;16.03;7.20;;;;;;;6.18;72.34;99890.09;5070202;28;20028;-78
2023/12/02 09:36:44;;;;;;;15.93;7.05;;;;;;;6.25;71.48;99898.88;5069150;28;20438;-77
2023/12/02 09:39:10;;;;;;;10.82;5.18;;;;;;;6.30;72.49;99906.75;5070416;28;20493;-77
2023/12/02 09:41:51;;;;;;;14.10;6.27;;;;;;;6.32;72.82;99908.50;5069843;28;20075;-78
2023/12/02 09:44:23;;;;;;;13.95;6.25;;;;;;;6.38;72.35;99912.03;5070844;28;20032;-78
2023/12/02 09:46:57;;;;;;;14.63;6.50;;;;;;;6.41;71.94;99922.53;5069574;28;20044;-80
2023/12/02 09:49:30;;;;;;;15.27;6.87;;;;;;;6.44;72.41;99927.78;5069336;28;20128;-78
2023/12/02 09:52:04;;;;;;;14.10;6.20;;;;;;;6.49;72.25;99935.63;5070364;28;20028;-78
2023/12/02 09:54:42;;;;;;;14.07;6.28;;;;;;;6.50;71.17;99934.78;5070860;28;20024;-79
2023/12/02 09:57:32;;;;;;;13.15;6.63;;;;;;;6.57;70.83;99933.97;5070869;28;20052;-78
2023/12/02 10:00:15;;;;;;;13.18;6.40;;;;;;;6.65;70.26;99939.25;5068858;28;20048;-78
2023/12/02 10:02:46;;;;;;;13.30;6.47;;;;;;;6.69;70.59;99948.88;5068981;28;20405;-78
2023/12/02 10:05:14;;;;;;;13.80;6.10;;;;;;;6.66;71.13;99938.41;5070804;28;20422;-79
2023/12/02 10:08:07;;;;;;;12.82;6.47;;;;;;;6.60;69.30;99947.94;5070511;28;20028;-81
2023/12/02 10:10:57;;;;;;;14.80;5.50;;;;;;;6.55;70.59;99954.88;5069623;28;20036;-76
2023/12/02 10:13:37;;;;;;;14.77;5.85;;;;;;;6.46;70.89;99953.06;5028562;28;20071;-79
2023/12/02 10:16:10;;;;;;;13.53;6.10;;;;;;;6.52;70.91;99957.47;5067804;28;20029;-77
2023/12/02 10:18:41;;;;;;;14.85;7.15;;;;;;;6.64;71.43;99961.06;5055337;28;20740;-78
2023/12/02 10:21:10;;;;;;;13.50;6.43;;;;;;;6.77;70.86;99947.19;5069269;28;20109;-78
2023/12/02 10:23:57;;;;;;;14.93;5.80;;;;;;;6.82;70.50;99945.47;5069950;28;20051;-79
2023/12/02 10:26:34;;;;;;;14.23;6.57;;;;;;;6.89;68.98;99944.66;5070201;28;20039;-79
2023/12/02 10:29:12;;;;;;;13.23;6.17;;;;;;;7.02;70.05;99942.97;5062441;28;20111;-78
2023/12/02 10:31:48;;;;;;;13.73;6.35;;;;;;;7.13;69.49;99936.91;5068111;28;20020;-78
2023/12/02 10:34:35;;;;;;;12.93;5.65;;;;;;;7.31;69.90;99933.47;5051292;28;20040;-77
2023/12/02 10:37:03;;;;;;;14.60;6.13;;;;;;;7.52;68.42;99943.19;5068845;28;20159;-78
2023/12/02 10:39:42;;;;;;;13.85;6.22;;;;;;;7.77;68.08;99948.50;5067591;28;20036;-77
2023/12/02 10:42:21;;;;;;;12.70;6.73;;;;;;;8.00;66.86;99940.66;5068885;28;20028;-79
2023/12/02 10:44:48;;;;;;;13.75;7.35;;;;;;;8.14;66.11;99958.16;5059370;28;20032;-77
2023/12/02 10:47:15;;;;;;;13.55;6.05;;;;;;;8.19;66.79;99967.75;5068811;28;20048;-77
2023/12/02 10:49:41;;;;;;;11.77;5.85;;;;;;;8.28;66.76;99969.50;5068926;28;20024;-78
2023/12/02 10:52:08;;;;;;;12.32;6.22;;;;;;;8.34;66.30;99971.28;5069166;28;20111;-77
2023/12/02 10:54:36;;;;;;;14.33;6.63;;;;;;;8.49;66.23;99975.66;5069276;28;20032;-77
2023/12/02 10:57:08;;;;;;;12.85;5.57;;;;;;;8.59;67.02;99993.19;5063285;28;20431;-78
2023/12/02 10:59:40;;;;;;;13.63;5.50;;;;;;;8.78;66.91;99998.41;5068481;28;20039;-78
2023/12/02 11:02:15;;;;;;;12.80;5.85;;;;;;;8.86;66.83;99995.78;5069047;28;20038;-78
2023/12/02 11:04:46;;;;;;;11.70;5.63;;;;;;;8.90;66.37;100001.03;5068884;28;20075;-76
2023/12/02 11:07:15;;;;;;;13.63;5.97;;;;;;;8.90;65.25;100003.66;5068775;28;20603;-76
2023/12/02 11:09:46;;;;;;;13.57;5.60;;;;;;;8.96;66.21;100001.88;5068944;28;20036;-77
2023/12/02 11:12:30;;;;;;;12.23;5.45;;;;;;;8.95;66.32;100002.78;5068150;28;20392;-76
2023/12/02 11:15:09;;;;;;;12.07;5.03;;;;;;;8.88;64.38;100000.16;5068957;28;20040;-77
2023/12/02 11:17:55;;;;;;;11.07;4.95;;;;;;;8.64;65.33;100010.69;5063915;28;20028;-76
2023/12/02 11:20:26;;;;;;;11.60;5.33;;;;;;;8.37;65.52;100017.63;5068831;28;20039;-79
2023/12/02 11:23:22;;;;;;;10.98;5.05;;;;;;;8.16;65.59;100014.13;5068402;28;20432;-78
2023/12/02 11:26:11;;;;;;;12.45;5.63;;;;;;;7.99;64.47;100022.81;5068122;28;20048;-76
2023/12/02 11:28:42;;;;;;;12.90;5.45;;;;;;;7.82;64.47;100030.63;5068300;28;20037;-78
2023/12/02 11:31:34;;;;;;;12.30;5.25;;;;;;;7.72;65.25;100034.97;5065872;28;20040;-74
2023/12/02 11:34:47;;;;;;;11.50;5.17;;;;;;;7.66;65.40;100042.81;5044817;28;20580;-79
2023/12/02 11:37:20;;;;;;;11.15;5.18;;;;;;;7.61;65.45;100036.69;5061544;28;20443;-77
2023/12/02 11:40:10;;;;;;;11.88;5.22;;;;;;;7.53;65.03;100033.13;5068657;28;20034;-79